Stolt Jade — ZCSQ4 — position and weather

sailwx.info

Track history (hours):
 
Tides and Currents Weather Stations Pressure Air Temp Water Temp Dewpoint Dewpoint Depression Visibility Wind Speed Wind Dir Waves Ship Positions

Stolt Jade

Last reported at 2015-Apr-01 02:33 UTC. Time now 2015-Apr-01 03:06 UTC.
Position N 22°30' E 120°01'.

Length 175 m; draft 8.6 m.

Type: Ship (hazmat cat B). MMSI: 319439000.

Date/timePositionNaut miles runAvg speedWind from/ knotsBaromVisibWave heightAir tempDewpointWater temp
2015-Apr-01 02:33N 22°30' E 120°01'1514.6
2015-Apr-01 01:33N 22°33' E 120°17'2 1.2
2015-Mar-31 23:25N 22°35' E 120°18'0 0.0
2015-Mar-31 18:31N 22°35' E 120°18'0 0.0
2015-Mar-31 12:20N 22°35' E 120°18'3 3.6
2015-Mar-31 11:33N 22°37' E 120°16'8 7.7
2015-Mar-31 10:33N 22°39' E 120°08'1312.9
2015-Mar-31 09:33N 22°50' E 119°59'46612.9
2015-Mar-29 21:32N 29°21' E 124°39'  
2015-Mar-22 11:33N 34°03' E 134°56'1212.3
2015-Mar-22 10:33N 34°15' E 134°59'1212.3
2015-Mar-22 09:33N 34°26' E 135°05'1313.4
2015-Mar-22 08:33N 34°35' E 135°16'4 4.3
2015-Mar-22 07:32N 34°40' E 135°18'0 0.0
2015-Mar-22 06:32N 34°40' E 135°18'0 0.0
2015-Mar-22 05:32N 34°40' E 135°18'0 0.0
2015-Mar-22 04:32N 34°40' E 135°18'0 0.1
2015-Mar-22 03:20N 34°40' E 135°18'  
Track history (hours):
 
Tides and Currents Weather Stations Pressure Air Temp Water Temp Dewpoint Dewpoint Depression Visibility Wind Speed Wind Dir Waves Ship Positions

Stolt Jade

Last reported at 2015-Apr-01 02:33 UTC. Time now 2015-Apr-01 03:06 UTC.
Position N 22°30' E 120°01'.

Length 175 m; draft 8.6 m.

Type: Ship (hazmat cat B). MMSI: 319439000.

Date/timePositionNaut miles runAvg speedWind from/ knotsBaromVisibWave heightAir tempDewpointWater temp
2015-Apr-01 02:33N 22°30' E 120°01'1514.6
2015-Apr-01 01:33N 22°33' E 120°17'2 1.2
2015-Mar-31 23:25N 22°35' E 120°18'0 0.0
2015-Mar-31 18:31N 22°35' E 120°18'0 0.0
2015-Mar-31 12:20N 22°35' E 120°18'3 3.6
2015-Mar-31 11:33N 22°37' E 120°16'8 7.7
2015-Mar-31 10:33N 22°39' E 120°08'1312.9
2015-Mar-31 09:33N 22°50' E 119°59'46612.9
2015-Mar-29 21:32N 29°21' E 124°39'  
2015-Mar-22 11:33N 34°03' E 134°56'1212.3
2015-Mar-22 10:33N 34°15' E 134°59'1212.3
2015-Mar-22 09:33N 34°26' E 135°05'1313.4
2015-Mar-22 08:33N 34°35' E 135°16'4 4.3
2015-Mar-22 07:32N 34°40' E 135°18'0 0.0
2015-Mar-22 06:32N 34°40' E 135°18'0 0.0
2015-Mar-22 05:32N 34°40' E 135°18'0 0.0
2015-Mar-22 04:32N 34°40' E 135°18'0 0.1
2015-Mar-22 03:20N 34°40' E 135°18'  

Dump ship's entire track history